^^
Station Historical Data
Daily Summary for January 5, 2018 Units:  Both    English   Metric
« Previous Day
Next Day »
Daily Weekly Monthly Yearly Custom
  High: Low: Average:
Temperature: TemperatureF °F /  -17.8 °C 75.7 °F /  24.3 °C 87.3 °F /  30.7 °C
Dew Point: DewpointF °F /  -17.8 °C 26.2 °F /  -3.2 °C 42 °F /  5.6 °C
Humidity: Humidity% 7% 22%
Wind Speed: WindSpeedMPHmph /  0km/h - 9.3mph /  15km/h
Wind Gust: WindSpeedGustMPHmph /  0km/h - -
Wind- - SSW
Pressure: PressureIn in /  0 hPa 29.57 in /  1001.2 hPa -
Precipitation: 0.00 in /  0 mm    
Historical Graphs
 
 
Tabular Data for January 5, 2018
Time Temperature Dew Point Pressure Wind Wind Speed Wind Gust Humidity Rainfall Rate (Hourly) solar Conditions
TemperatureF °F /  -17.8 °C DewpointF °F /  -17.8 °C PressureInin /  0hPa Calm     Humidity% HourlyPrecipInin /  0mm SolarRadiationWatts/m^2 W/m2 Conditions
06:18 75.7 °F /  24.3 °C 47.7 °F /  8.7 °C 29.72in /  1006.3hPa Calm     37% 0.00in /  0mm 18.0 W/m2
06:28 75.7 °F /  24.3 °C 47.7 °F /  8.7 °C 29.72in /  1006.3hPa Calm     37% 0.00in /  0mm 26.0 W/m2
06:40 76.6 °F /  24.8 °C 47.7 °F /  8.7 °C 29.72in /  1006.3hPa SW 6.9mph /  11.1km/h 8.0mph /  12.9km/h 36% 0.00in /  0mm 47.0 W/m2
06:58 77.4 °F /  25.2 °C 48.4 °F /  9.1 °C 29.72in /  1006.3hPa SW 8.1mph /  13km/h 9.0mph /  14.5km/h 36% 0.00in /  0mm 109.0 W/m2
07:07 78.1 °F /  25.6 °C 48.9 °F /  9.4 °C 29.71in /  1006hPa SW 8.9mph /  14.3km/h 12.0mph /  19.3km/h 36% 0.00in /  0mm 149.0 W/m2
07:16 78.4 °F /  25.8 °C 48.6 °F /  9.2 °C 29.71in /  1006hPa SW 4.9mph /  7.9km/h 10.0mph /  16.1km/h 35% 0.00in /  0mm 188.0 W/m2
07:30 79.5 °F /  26.4 °C 48.7 °F /  9.3 °C 29.71in /  1006hPa SW 6.9mph /  11.1km/h 7.0mph /  11.3km/h 34% 0.00in /  0mm 243.0 W/m2
07:35 80.1 °F /  26.7 °C 48.4 °F /  9.1 °C 29.71in /  1006hPa SW 11.0mph /  17.7km/h 11.0mph /  17.7km/h 33% 0.00in /  0mm 260.0 W/m2
07:45 80.4 °F /  26.9 °C 48.7 °F /  9.3 °C 29.72in /  1006.3hPa SW 12.1mph /  19.5km/h 14.0mph /  22.5km/h 33% 0.00in /  0mm 294.0 W/m2
07:50 80.8 °F /  27.1 °C 48.9 °F /  9.4 °C 29.72in /  1006.3hPa SW 11.0mph /  17.7km/h 13.0mph /  20.9km/h 33% 0.00in /  0mm 311.0 W/m2
07:56 81.0 °F /  27.2 °C 48.4 °F /  9.1 °C 29.72in /  1006.3hPa SW 13.0mph /  20.9km/h 13.0mph /  20.9km/h 32% 0.00in /  0mm 329.0 W/m2
08:08 81.9 °F /  27.7 °C 48.2 °F /  9 °C 29.72in /  1006.3hPa SW 10.1mph /  16.3km/h 13.0mph /  20.9km/h 31% 0.00in /  0mm 362.0 W/m2
08:13 82.0 °F /  27.8 °C 48.4 °F /  9.1 °C 29.72in /  1006.3hPa SW 10.1mph /  16.3km/h 14.0mph /  22.5km/h 31% 0.00in /  0mm 380.0 W/m2
08:19 82.4 °F /  28 °C 47.8 °F /  8.8 °C 29.72in /  1006.3hPa SW 12.1mph /  19.5km/h 12.1mph /  19.5km/h 30% 0.00in /  0mm 397.0 W/m2
08:55 85.6 °F /  29.8 °C 45.9 °F /  7.7 °C 29.71in /  1006hPa SW 6.9mph /  11.1km/h 9.0mph /  14.5km/h 25% 0.00in /  0mm 513.0 W/m2
09:12 87.4 °F /  30.8 °C 43.9 °F /  6.6 °C 29.71in /  1006hPa SW 6.9mph /  11.1km/h 10.0mph /  16.1km/h 22% 0.00in /  0mm 582.0 W/m2
09:22 88.0 °F /  31.1 °C 44.4 °F /  6.9 °C 29.71in /  1006hPa SW 8.9mph /  14.3km/h 10.0mph /  16.1km/h 22% 0.00in /  0mm 629.0 W/m2
09:38 89.1 °F /  31.7 °C 44.1 °F /  6.7 °C 29.71in /  1006hPa SW 6.9mph /  11.1km/h 11.0mph /  17.7km/h 21% 0.00in /  0mm 647.0 W/m2
09:43 89.6 °F /  32 °C 44.4 °F /  6.9 °C 29.71in /  1006hPa SW 10.1mph /  16.3km/h 11.0mph /  17.7km/h 21% 0.00in /  0mm 747.0 W/m2
09:48 90.1 °F /  32.3 °C 43.7 °F /  6.5 °C 29.71in /  1006hPa SW 6.0mph /  9.7km/h 13.0mph /  20.9km/h 20% 0.00in /  0mm 773.0 W/m2
09:59 91.6 °F /  33.1 °C 43.5 °F /  6.4 °C 29.71in /  1006hPa SW 8.1mph /  13km/h 9.0mph /  14.5km/h 19% 0.00in /  0mm 281.0 W/m2
10:08 91.9 °F /  33.3 °C 43.7 °F /  6.5 °C 29.71in /  1006hPa SW 8.1mph /  13km/h 12.0mph /  19.3km/h 19% 0.00in /  0mm 782.0 W/m2
10:13 92.5 °F /  33.6 °C 44.2 °F /  6.8 °C 29.71in /  1006hPa SW 13.0mph /  20.9km/h 13.0mph /  20.9km/h 19% 0.00in /  0mm 784.0 W/m2
10:23 92.8 °F /  33.8 °C 44.6 °F /  7 °C 29.71in /  1006hPa SW 11.0mph /  17.7km/h 13.0mph /  20.9km/h 19% 0.00in /  0mm 853.0 W/m2
11:03 93.6 °F /  34.2 °C 42.3 °F /  5.7 °C 29.71in /  1006hPa SW 8.9mph /  14.3km/h 13.0mph /  20.9km/h 17% 0.00in /  0mm 680.0 W/m2
11:23 96.3 °F /  35.7 °C 39.4 °F /  4.1 °C 29.70in /  1005.6hPa SSW 12.1mph /  19.5km/h 14.0mph /  22.5km/h 14% 0.00in /  0mm 940.0 W/m2
11:29 96.3 °F /  35.7 °C 39.4 °F /  4.1 °C 29.70in /  1005.6hPa SSW 8.1mph /  13km/h 11.0mph /  17.7km/h 14% 0.00in /  0mm 930.0 W/m2
11:51 97.5 °F /  36.4 °C 38.5 °F /  3.6 °C 29.70in /  1005.6hPa SW 8.9mph /  14.3km/h 16.0mph /  25.7km/h 13% 0.00in /  0mm 939.0 W/m2
14:30 102.7 °F /  39.3 °C 35.8 °F /  2.1 °C 29.62in /  1002.9hPa SW 4.9mph /  7.9km/h 11.0mph /  17.7km/h 10% 0.00in /  0mm 911.0 W/m2
15:30 104.2 °F /  40.1 °C 31.3 °F /  -0.4 °C 29.61in /  1002.6hPa South 8.9mph /  14.3km/h 14.0mph /  22.5km/h 8% 0.00in /  0mm 800.0 W/m2
15:45 104.2 °F /  40.1 °C 31.3 °F /  -0.4 °C 29.60in /  1002.3hPa SSE 16.1mph /  25.9km/h 17.0mph /  27.4km/h 8% 0.00in /  0mm 763.0 W/m2
16:12 105.1 °F /  40.6 °C 28.6 °F /  -1.9 °C 29.59in /  1001.9hPa South 13.0mph /  20.9km/h 14.0mph /  22.5km/h 7% 0.00in /  0mm 675.0 W/m2
16:26 104.7 °F /  40.4 °C 28.4 °F /  -2 °C 29.58in /  1001.6hPa SSW 8.9mph /  14.3km/h 17.0mph /  27.4km/h 7% 0.00in /  0mm 631.0 W/m2
16:32 104.2 °F /  40.1 °C 28.0 °F /  -2.2 °C 29.58in /  1001.6hPa SSW 8.9mph /  14.3km/h 11.0mph /  17.7km/h 7% 0.00in /  0mm 613.0 W/m2
16:37 104.2 °F /  40.1 °C 28.0 °F /  -2.2 °C 29.58in /  1001.6hPa SSW 8.9mph /  14.3km/h 15.0mph /  24.1km/h 7% 0.00in /  0mm 598.0 W/m2
16:47 103.8 °F /  39.9 °C 30.9 °F /  -0.6 °C 29.57in /  1001.2hPa SSW 4.9mph /  7.9km/h 9.0mph /  14.5km/h 8% 0.00in /  0mm 564.0 W/m2
18:41 101.7 °F /  38.7 °C 26.2 °F /  -3.2 °C 29.57in /  1001.2hPa South 16.1mph /  25.9km/h 18.0mph /  29km/h 7% 0.00in /  0mm 174.0 W/m2
18:53 100.9 °F /  38.3 °C 31.8 °F /  -0.1 °C 29.57in /  1001.2hPa SSW 19.0mph /  30.6km/h 19.0mph /  30.6km/h 9% 0.00in /  0mm 130.0 W/m2
19:07 99.5 °F /  37.5 °C 33.3 °F /  0.7 °C 29.58in /  1001.6hPa South 19.0mph /  30.6km/h 20.0mph /  32.2km/h 10% 0.00in /  0mm 77.0 W/m2
20:16 93.7 °F /  34.3 °C 46.6 °F /  8.1 °C 29.61in /  1002.6hPa SSW 11.0mph /  17.7km/h 17.0mph /  27.4km/h 20% 0.00in /  0mm 0.0 W/m2
20:42 91.6 °F /  33.1 °C 48.6 °F /  9.2 °C 29.62in /  1002.9hPa SW 16.1mph /  25.9km/h 17.0mph /  27.4km/h 23% 0.00in /  0mm 0.0 W/m2
21:19 88.3 °F /  31.3 °C 48.0 °F /  8.9 °C 29.64in /  1003.6hPa SSW 13.0mph /  20.9km/h 15.0mph /  24.1km/h 25% 0.00in /  0mm 0.0 W/m2
21:27 87.6 °F /  30.9 °C 47.5 °F /  8.6 °C 29.65in /  1003.9hPa SSW 11.0mph /  17.7km/h 15.0mph /  24.1km/h 25% 0.00in /  0mm 0.0 W/m2
21:43 86.5 °F /  30.3 °C 47.7 °F /  8.7 °C 29.65in /  1003.9hPa South 10.1mph /  16.3km/h 17.0mph /  27.4km/h 26% 0.00in /  0mm 0.0 W/m2
21:47 86.4 °F /  30.2 °C 47.5 °F /  8.6 °C 29.65in /  1003.9hPa South 13.0mph /  20.9km/h 14.0mph /  22.5km/h 26% 0.00in /  0mm 0.0 W/m2
22:00 85.8 °F /  29.9 °C 46.9 °F /  8.3 °C 29.66in /  1004.3hPa South 12.1mph /  19.5km/h 17.0mph /  27.4km/h 26% 0.00in /  0mm 0.0 W/m2
22:24 84.7 °F /  29.3 °C 45.0 °F /  7.2 °C 29.68in /  1005hPa SSW 8.1mph /  13km/h 15.0mph /  24.1km/h 25% 0.00in /  0mm 0.0 W/m2
22:30 84.6 °F /  29.2 °C 45.0 °F /  7.2 °C 29.68in /  1005hPa South 6.9mph /  11.1km/h 10.0mph /  16.1km/h 25% 0.00in /  0mm 0.0 W/m2
22:40 84.0 °F /  28.9 °C 43.3 °F /  6.3 °C 29.69in /  1005.3hPa South 12.1mph /  19.5km/h 14.0mph /  22.5km/h 24% 0.00in /  0mm 0.0 W/m2
22:52 83.5 °F /  28.6 °C 43.9 °F /  6.6 °C 29.69in /  1005.3hPa South 8.9mph /  14.3km/h 11.0mph /  17.7km/h 25% 0.00in /  0mm 0.0 W/m2
23:03 83.3 °F /  28.5 °C 44.8 °F /  7.1 °C 29.70in /  1005.6hPa Calm   4.0mph /  6.4km/h 26% 0.00in /  0mm 0.0 W/m2
23:19 82.4 °F /  28 °C 44.1 °F /  6.7 °C 29.69in /  1005.3hPa SSW 4.9mph /  7.9km/h 7.0mph /  11.3km/h 26% 0.00in /  0mm 0.0 W/m2
23:29 81.1 °F /  27.3 °C 45.0 °F /  7.2 °C 29.69in /  1005.3hPa SSW 8.1mph /  13km/h 10.0mph /  16.1km/h 28% 0.00in /  0mm 0.0 W/m2
23:43 80.4 °F /  26.9 °C 46.2 °F /  7.9 °C 29.69in /  1005.3hPa SSW 8.9mph /  14.3km/h 12.0mph /  19.3km/h 30% 0.00in /  0mm 0.0 W/m2
23:58 79.7 °F /  26.5 °C 47.3 °F /  8.5 °C 29.69in /  1005.3hPa SSW 8.9mph /  14.3km/h 11.0mph /  17.7km/h 32% 0.00in /  0mm 0.0 W/m2
Canyon Roadhouse, Fishriver Canyon, Namibia
Compliments of Weather Underground - 1.75 mb